createdAt,value
2019-02-16T00:00:13.940Z,0.23
2019-02-16T00:02:42.452Z,0.25
2019-02-16T00:05:10.905Z,0.48
2019-02-16T00:07:40.054Z,0.50
2019-02-16T00:10:08.601Z,0.58
2019-02-16T00:12:36.932Z,0.62
2019-02-16T00:15:08.679Z,0.58
2019-02-16T00:17:37.223Z,0.40
2019-02-16T00:20:08.555Z,0.42
2019-02-16T00:22:37.262Z,0.26
2019-02-16T00:25:06.414Z,0.27
2019-02-16T00:27:35.294Z,0.16
2019-02-16T00:30:05.516Z,0.22
2019-02-16T00:32:37.033Z,0.32
2019-02-16T00:35:08.667Z,0.35
2019-02-16T00:37:37.088Z,0.41
2019-02-16T00:40:09.942Z,0.17
2019-02-16T00:42:38.815Z,0.26
2019-02-16T00:45:08.531Z,-0.05
2019-02-16T00:47:37.297Z,-0.06
2019-02-16T00:50:06.205Z,-0.15
2019-02-16T00:52:34.627Z,-0.08
2019-02-16T00:55:03.552Z,-0.21
2019-02-16T00:57:32.284Z,-0.15
2019-02-16T01:00:01.293Z,-0.28
2019-02-16T01:02:31.290Z,-0.35
2019-02-16T01:05:00.302Z,-0.17
2019-02-16T01:07:28.803Z,-0.31
2019-02-16T01:09:57.557Z,-0.41
2019-02-16T01:12:26.321Z,-0.53
2019-02-16T01:14:54.779Z,-0.20
2019-02-16T01:17:23.305Z,-0.03
2019-02-16T01:19:54.038Z,0.02
2019-02-16T01:22:22.392Z,0.07
2019-02-16T01:24:50.746Z,-0.46
2019-02-16T01:27:19.183Z,-0.76
2019-02-16T01:29:48.070Z,-0.56
2019-02-16T01:32:16.726Z,-0.33
2019-02-16T01:34:45.157Z,-0.20
2019-02-16T01:37:14.029Z,-0.10
2019-02-16T01:39:42.656Z,-0.32
2019-02-16T01:42:11.228Z,-0.37
2019-02-16T01:44:39.821Z,-0.35
2019-02-16T01:47:08.452Z,-0.25
2019-02-16T01:49:38.065Z,-0.26
2019-02-16T01:52:06.744Z,-0.26
2019-02-16T01:54:35.258Z,-0.16
2019-02-16T01:57:04.991Z,-0.25
2019-02-16T01:59:33.350Z,-0.42
2019-02-16T02:02:04.214Z,-0.72
2019-02-16T02:04:32.561Z,-0.57
2019-02-16T02:07:01.018Z,-0.44
2019-02-16T02:09:29.374Z,-0.39
2019-02-16T02:11:57.827Z,-0.50
2019-02-16T02:14:26.187Z,-0.35
2019-02-16T02:16:57.511Z,-0.51
2019-02-16T02:19:26.021Z,-0.63
2019-02-16T02:21:54.414Z,-0.45
2019-02-16T02:24:22.774Z,-1.14
2019-02-16T02:26:51.158Z,-0.96
2019-02-16T02:29:19.516Z,-0.96
2019-02-16T02:31:47.899Z,-0.94
2019-02-16T02:34:16.251Z,-0.85
2019-02-16T02:36:44.712Z,-0.95
2019-02-16T02:39:13.062Z,-0.96
2019-02-16T02:41:41.450Z,-0.77
2019-02-16T02:44:09.809Z,-0.76
2019-02-16T02:46:38.211Z,-0.84
2019-02-16T02:49:06.561Z,-0.74
2019-02-16T02:51:34.926Z,-0.74
2019-02-16T02:54:03.313Z,-0.70
2019-02-16T02:56:31.661Z,-0.75
2019-02-16T02:59:00.047Z,-0.75
2019-02-16T03:01:28.410Z,-0.75
2019-02-16T03:03:56.798Z,-0.64
2019-02-16T03:06:25.160Z,-0.73
2019-02-16T03:08:53.555Z,-0.73
2019-02-16T03:11:21.908Z,-0.75
2019-02-16T03:13:50.289Z,-0.70
2019-02-16T03:16:18.654Z,-0.79
2019-02-16T03:18:47.186Z,-0.63
2019-02-16T03:21:15.484Z,-0.73
2019-02-16T03:23:43.877Z,-0.67
2019-02-16T03:26:32.211Z,-1.00
2019-02-16T03:29:15.626Z,-1.24
2019-02-16T03:32:03.908Z,-1.12
2019-02-16T03:34:41.200Z,-1.14
2019-02-16T03:37:27.948Z,-1.14
2019-02-16T03:39:56.328Z,-1.02
2019-02-16T03:42:24.687Z,-1.07
2019-02-16T03:44:53.123Z,-1.07
2019-02-16T03:47:21.441Z,-1.05
2019-02-16T03:49:49.822Z,-0.95
2019-02-16T03:52:18.191Z,-0.91
2019-02-16T03:54:46.741Z,-0.83
2019-02-16T03:57:15.112Z,-0.88
2019-02-16T03:59:43.496Z,-1.23
2019-02-16T04:02:11.843Z,-1.38
2019-02-16T04:04:40.297Z,-1.38
2019-02-16T04:07:08.660Z,-1.23
2019-02-16T04:09:37.051Z,-1.46
2019-02-16T04:12:05.400Z,-1.46
2019-02-16T04:14:33.786Z,-1.09
2019-02-16T04:17:02.154Z,-1.21
2019-02-16T04:19:30.532Z,-1.34
2019-02-16T04:21:58.888Z,-1.28
2019-02-16T04:24:27.292Z,-1.28
2019-02-16T04:26:55.642Z,-1.13
2019-02-16T04:29:24.031Z,-1.04
2019-02-16T04:31:52.390Z,-1.22
2019-02-16T04:34:20.746Z,-1.22
2019-02-16T04:36:49.131Z,-1.26
2019-02-16T04:39:17.484Z,-1.21
2019-02-16T04:41:45.873Z,-1.13
2019-02-16T04:44:14.225Z,-1.03
2019-02-16T04:46:42.621Z,-1.12
2019-02-16T04:49:10.997Z,-1.25
2019-02-16T04:51:39.379Z,-1.00
2019-02-16T04:54:07.736Z,-1.10
2019-02-16T04:56:36.122Z,-1.38
2019-02-16T04:59:04.562Z,-1.38
2019-02-16T05:01:32.954Z,-1.69
2019-02-16T05:04:01.305Z,-1.89
2019-02-16T05:06:29.690Z,-1.89
2019-02-16T05:08:58.045Z,-1.60
2019-02-16T05:11:26.439Z,-1.51
2019-02-16T05:13:54.797Z,-1.51
2019-02-16T05:16:23.195Z,-1.78
2019-02-16T05:18:51.554Z,-1.71
2019-02-16T05:21:19.959Z,-1.71
2019-02-16T05:23:48.306Z,-1.76
2019-02-16T05:26:16.755Z,-1.55
2019-02-16T05:28:45.127Z,-1.59
2019-02-16T05:31:13.521Z,-1.67
2019-02-16T05:33:41.868Z,-1.72
2019-02-16T05:36:10.257Z,-1.77
2019-02-16T05:38:38.622Z,-1.57
2019-02-16T05:41:07.013Z,-1.34
2019-02-16T05:43:35.369Z,-1.31
2019-02-16T05:46:03.759Z,-1.43
2019-02-16T05:48:32.122Z,-1.55
2019-02-16T05:51:00.795Z,-1.78
2019-02-16T05:53:29.142Z,-1.78
2019-02-16T05:55:57.499Z,-1.59
2019-02-16T05:58:25.892Z,-1.62
2019-02-16T06:00:54.247Z,-1.83
2019-02-16T06:03:22.634Z,-2.31
2019-02-16T06:05:50.983Z,-2.06
2019-02-16T06:08:19.376Z,-1.87
2019-02-16T06:10:47.741Z,-1.94
2019-02-16T06:13:16.133Z,-1.69
2019-02-16T06:15:44.485Z,-1.64
2019-02-16T06:18:12.876Z,-1.64
2019-02-16T06:20:41.237Z,-1.68
2019-02-16T06:23:09.622Z,-1.55
2019-02-16T06:25:37.999Z,-1.56
2019-02-16T06:28:06.386Z,-1.47
2019-02-16T06:30:34.746Z,-1.44
2019-02-16T06:33:03.125Z,-1.41
2019-02-16T06:35:33.127Z,-1.49
2019-02-16T06:38:02.073Z,-1.55
2019-02-16T06:40:30.442Z,-1.88
2019-02-16T06:42:58.914Z,-1.90
2019-02-16T06:45:27.270Z,-1.63
2019-02-16T06:47:55.667Z,-1.62
2019-02-16T06:50:24.207Z,-1.68
2019-02-16T06:52:52.587Z,-1.55
2019-02-16T06:55:24.061Z,-1.51
2019-02-16T06:57:52.530Z,-1.38
2019-02-16T07:00:22.530Z,-1.31
2019-02-16T07:02:52.177Z,-1.70
2019-02-16T07:05:26.228Z,-2.05
2019-02-16T07:07:54.756Z,-2.00
2019-02-16T07:10:23.108Z,-1.89
2019-02-16T07:12:51.470Z,-2.14
2019-02-16T07:15:19.857Z,-1.90
2019-02-16T07:17:49.863Z,-1.46
2019-02-16T07:20:20.100Z,-1.46
2019-02-16T07:22:48.456Z,-1.29
2019-02-16T07:25:17.093Z,-1.29
2019-02-16T07:27:45.717Z,-1.70
2019-02-16T07:30:14.119Z,-1.79
2019-02-16T07:32:42.618Z,-1.70
2019-02-16T07:35:11.188Z,-1.39
2019-02-16T07:37:39.553Z,-1.28
2019-02-16T07:40:14.269Z,-1.50
2019-02-16T07:42:50.622Z,-1.09
2019-02-16T07:45:23.267Z,-0.92
2019-02-16T07:47:58.167Z,-0.92
2019-02-16T07:50:38.506Z,-0.80
2019-02-16T07:53:11.237Z,-1.00
2019-02-16T07:55:43.759Z,-1.00
2019-02-16T07:58:16.492Z,-0.75
2019-02-16T08:00:46.525Z,-0.61
2019-02-16T08:03:25.429Z,-0.46
2019-02-16T08:05:57.871Z,-0.42
2019-02-16T08:08:27.946Z,-0.32
2019-02-16T08:11:14.414Z,-0.20
2019-02-16T08:13:47.822Z,-0.12
2019-02-16T08:16:17.896Z,-0.02
2019-02-16T08:18:47.861Z,0.10
2019-02-16T08:21:34.032Z,0.23
2019-02-16T08:24:04.028Z,0.29
2019-02-16T08:26:42.758Z,0.36
2019-02-16T08:29:21.273Z,0.48
2019-02-16T08:32:06.151Z,0.53
2019-02-16T08:34:42.237Z,0.69
2019-02-16T08:37:15.031Z,0.76
2019-02-16T08:39:47.744Z,0.82
2019-02-16T08:42:30.098Z,0.89
2019-02-16T08:45:04.961Z,0.94
2019-02-16T08:47:37.095Z,1.08
2019-02-16T08:50:11.266Z,1.16
2019-02-16T08:52:43.220Z,1.23
2019-02-16T08:55:13.213Z,1.28
2019-02-16T08:57:46.203Z,1.30
2019-02-16T09:00:33.154Z,1.37
2019-02-16T09:03:23.021Z,1.45
2019-02-16T09:05:59.120Z,1.55
2019-02-16T09:08:42.752Z,1.65
2019-02-16T09:11:13.673Z,1.74
2019-02-16T09:13:48.536Z,1.83
2019-02-16T09:16:38.496Z,1.97
2019-02-16T09:19:08.633Z,2.08
2019-02-16T09:21:40.548Z,2.18
2019-02-16T09:24:13.671Z,2.23
2019-02-16T09:26:58.894Z,2.33
2019-02-16T09:29:31.530Z,2.48
2019-02-16T09:32:10.370Z,2.68
2019-02-16T09:34:45.013Z,2.71
2019-02-16T09:37:19.804Z,2.80
2019-02-16T09:39:51.686Z,2.87
2019-02-16T09:42:44.771Z,2.98
2019-02-16T09:45:18.271Z,3.07
2019-02-16T09:47:50.543Z,3.20
2019-02-16T09:50:39.535Z,3.34
2019-02-16T09:53:10.031Z,3.36
2019-02-16T09:55:56.456Z,3.39
2019-02-16T09:58:26.498Z,3.54
2019-02-16T10:01:02.212Z,3.63
2019-02-16T10:03:35.238Z,3.69
2019-02-16T10:06:14.270Z,3.76
2019-02-16T10:08:50.114Z,3.81
2019-02-16T10:11:28.919Z,3.93
2019-02-16T10:14:15.330Z,4.05
2019-02-16T10:16:50.855Z,4.35
2019-02-16T10:19:20.883Z,4.41
2019-02-16T10:22:02.577Z,4.51
2019-02-16T10:24:48.452Z,4.56
2019-02-16T10:27:18.464Z,4.67
2019-02-16T10:29:57.344Z,4.89
2019-02-16T10:32:34.037Z,4.89
2019-02-16T10:35:13.305Z,4.92
2019-02-16T10:37:48.561Z,4.90
2019-02-16T10:40:29.418Z,5.31
2019-02-16T10:43:03.669Z,5.80
2019-02-16T10:45:55.552Z,5.59
2019-02-16T10:48:29.244Z,6.03
2019-02-16T10:51:01.765Z,6.04
2019-02-16T10:53:37.099Z,6.09
2019-02-16T10:56:14.509Z,6.11
2019-02-16T10:58:44.533Z,6.28
2019-02-16T11:01:25.137Z,6.40
2019-02-16T11:03:55.160Z,6.35
2019-02-16T11:06:28.575Z,6.48
2019-02-16T11:09:04.870Z,6.73
2019-02-16T11:11:50.851Z,6.70
2019-02-16T11:14:25.509Z,6.62
2019-02-16T11:17:04.565Z,6.68
2019-02-16T11:19:36.189Z,6.98
2019-02-16T11:22:17.997Z,6.97
2019-02-16T11:24:48.529Z,6.97
2019-02-16T11:27:30.157Z,6.93
2019-02-16T11:30:08.964Z,7.16
2019-02-16T11:32:50.964Z,7.40
2019-02-16T11:35:30.291Z,7.59
2019-02-16T11:38:01.895Z,7.68
2019-02-16T11:40:36.763Z,8.08
2019-02-16T11:43:22.052Z,8.42
2019-02-16T11:45:52.144Z,8.42
2019-02-16T11:48:22.142Z,8.40
2019-02-16T11:50:57.894Z,8.32
2019-02-16T11:53:31.504Z,8.64
2019-02-16T11:56:07.978Z,8.96
2019-02-16T11:58:44.760Z,8.91
2019-02-16T12:01:25.035Z,8.67
2019-02-16T12:04:10.038Z,8.52
2019-02-16T12:06:43.102Z,8.88
2019-02-16T12:09:30.517Z,9.29
2019-02-16T12:12:09.995Z,9.31
2019-02-16T12:14:40.210Z,9.32
2019-02-16T12:17:16.151Z,9.28
2019-02-16T12:19:51.880Z,9.32
2019-02-16T12:22:22.066Z,9.45
2019-02-16T12:25:04.705Z,9.67
2019-02-16T12:27:42.075Z,9.83
2019-02-16T12:30:28.345Z,9.78
2019-02-16T12:33:01.322Z,10.01
2019-02-16T12:35:31.319Z,10.06
2019-02-16T12:38:19.200Z,9.97
2019-02-16T12:40:52.432Z,9.85
2019-02-16T12:43:40.215Z,9.83
2019-02-16T12:46:13.542Z,10.25
2019-02-16T12:48:53.137Z,10.28
2019-02-16T12:51:23.170Z,10.18
2019-02-16T12:54:09.774Z,10.54
2019-02-16T12:56:45.563Z,10.52
2019-02-16T12:59:21.478Z,10.81
2019-02-16T13:01:51.844Z,10.93
2019-02-16T13:04:24.656Z,10.75
2019-02-16T13:06:59.507Z,10.90
2019-02-16T13:09:29.512Z,10.93
2019-02-16T13:12:17.971Z,10.94
2019-02-16T13:14:47.969Z,11.12
2019-02-16T13:17:23.998Z,11.30
2019-02-16T13:20:12.332Z,11.25
2019-02-16T13:22:42.493Z,11.51
2019-02-16T13:25:24.441Z,11.64
2019-02-16T13:27:56.764Z,11.39
2019-02-16T13:30:29.683Z,11.35
2019-02-16T13:33:08.552Z,11.29
2019-02-16T13:35:46.140Z,11.66
2019-02-16T13:38:16.162Z,11.94
2019-02-16T13:40:46.398Z,11.79
2019-02-16T13:43:22.216Z,12.00
2019-02-16T13:46:09.411Z,11.91
2019-02-16T13:48:45.383Z,12.12
2019-02-16T13:51:21.452Z,12.10
2019-02-16T13:53:54.346Z,12.08
2019-02-16T13:56:36.521Z,12.27
2019-02-16T13:59:23.195Z,12.25
2019-02-16T14:02:08.389Z,12.28
2019-02-16T14:04:38.659Z,12.57
2019-02-16T14:07:08.763Z,12.54
2019-02-16T14:09:38.796Z,12.46
2019-02-16T14:12:23.806Z,12.53
2019-02-16T14:15:03.013Z,12.54
2019-02-16T14:17:39.257Z,12.66
2019-02-16T14:20:08.649Z,12.92
2019-02-16T14:22:39.627Z,12.92
2019-02-16T14:25:10.393Z,12.88
2019-02-16T14:27:38.818Z,12.80
2019-02-16T14:30:12.219Z,13.09
2019-02-16T14:32:40.646Z,13.21
2019-02-16T14:35:09.641Z,13.16
2019-02-16T14:37:45.925Z,13.16
2019-02-16T14:40:14.375Z,13.39
2019-02-16T14:42:42.937Z,13.38
2019-02-16T14:45:13.835Z,13.57
2019-02-16T14:47:42.687Z,13.57
2019-02-16T14:50:12.561Z,13.49
2019-02-16T14:52:40.965Z,13.59
2019-02-16T14:55:12.592Z,13.72
2019-02-16T14:57:41.097Z,13.76
2019-02-16T15:00:11.895Z,13.89
2019-02-16T15:02:40.250Z,13.93
2019-02-16T15:05:09.883Z,13.85
2019-02-16T15:07:41.067Z,13.89
2019-02-16T15:10:13.869Z,13.98
2019-02-16T15:12:42.226Z,13.82
2019-02-16T15:15:13.267Z,13.86
2019-02-16T15:17:41.693Z,13.89
2019-02-16T15:20:17.164Z,13.86
2019-02-16T15:22:45.925Z,13.97
2019-02-16T15:25:14.305Z,13.86
2019-02-16T15:27:42.848Z,13.86
2019-02-16T15:30:17.187Z,13.95
2019-02-16T15:32:46.199Z,13.90
2019-02-16T15:35:14.630Z,13.95
2019-02-16T15:37:45.971Z,14.05
2019-02-16T15:40:14.301Z,14.09
2019-02-16T15:42:43.028Z,14.01
2019-02-16T15:45:13.451Z,14.04
2019-02-16T15:47:41.911Z,14.00
2019-02-16T15:50:12.863Z,13.99
2019-02-16T15:52:41.434Z,13.97
2019-02-16T15:55:12.091Z,13.97
2019-02-16T15:57:40.631Z,13.96
2019-02-16T16:00:13.465Z,13.91
2019-02-16T16:02:42.062Z,13.83
2019-02-16T16:05:10.485Z,13.91
2019-02-16T16:07:41.825Z,13.84
2019-02-16T16:10:28.689Z,13.75
2019-02-16T16:13:04.442Z,13.70
2019-02-16T16:15:43.115Z,13.65
2019-02-16T16:18:29.979Z,13.61
2019-02-16T16:21:03.119Z,13.52
2019-02-16T16:23:36.613Z,13.34
2019-02-16T16:26:19.137Z,13.21
2019-02-16T16:29:01.777Z,13.15
2019-02-16T16:31:34.773Z,12.35
2019-02-16T16:34:13.315Z,12.32
2019-02-16T16:36:55.493Z,12.22
2019-02-16T16:39:27.982Z,12.18
2019-02-16T16:41:58.041Z,12.10
2019-02-16T16:44:30.917Z,11.71
2019-02-16T16:47:18.772Z,11.33
2019-02-16T16:49:54.292Z,11.40
2019-02-16T16:52:29.817Z,11.34
2019-02-16T16:55:08.353Z,11.16
2019-02-16T16:57:47.352Z,11.03
2019-02-16T17:00:17.510Z,10.80
2019-02-16T17:02:53.275Z,10.54
2019-02-16T17:05:25.995Z,10.41
2019-02-16T17:08:01.989Z,10.13
2019-02-16T17:10:46.672Z,9.90
2019-02-16T17:13:34.711Z,9.89
2019-02-16T17:16:10.753Z,9.13
2019-02-16T17:18:43.536Z,9.22
2019-02-16T17:21:19.015Z,9.22
2019-02-16T17:23:49.097Z,9.13
2019-02-16T17:26:19.087Z,8.88
2019-02-16T17:29:04.137Z,8.74
2019-02-16T17:31:37.658Z,8.63
2019-02-16T17:34:26.139Z,8.56
2019-02-16T17:37:00.223Z,8.48
2019-02-16T17:39:46.408Z,8.21
2019-02-16T17:42:16.422Z,8.21
2019-02-16T17:44:52.106Z,8.26
2019-02-16T17:47:38.409Z,7.76
2019-02-16T17:50:10.475Z,7.62
2019-02-16T17:52:55.879Z,7.42
2019-02-16T17:55:31.675Z,7.40
2019-02-16T17:58:04.679Z,7.47
2019-02-16T18:00:36.299Z,7.45
2019-02-16T18:03:14.271Z,7.48
2019-02-16T18:05:50.933Z,7.48
2019-02-16T18:08:37.492Z,7.19
2019-02-16T18:11:15.847Z,7.02
2019-02-16T18:14:04.381Z,6.85
2019-02-16T18:16:40.817Z,6.82
2019-02-16T18:19:10.854Z,6.61
2019-02-16T18:21:42.704Z,6.48
2019-02-16T18:24:18.612Z,6.39
2019-02-16T18:26:56.300Z,6.28
2019-02-16T18:29:21.009Z,6.33
2019-02-16T18:32:03.306Z,6.22
2019-02-16T18:34:59.422Z,5.90
2019-02-16T18:37:36.844Z,5.80
2019-02-16T18:40:07.733Z,6.01
2019-02-16T18:42:56.193Z,5.98
2019-02-16T18:45:42.240Z,5.77
2019-02-16T18:48:18.292Z,5.83
2019-02-16T18:50:57.905Z,5.97
2019-02-16T18:53:42.878Z,5.87
2019-02-16T18:56:14.066Z,5.33
2019-02-16T18:59:00.385Z,5.19
2019-02-16T19:01:46.758Z,5.27
2019-02-16T19:04:22.675Z,4.69
2019-02-16T19:07:04.785Z,4.82
2019-02-16T19:09:34.899Z,4.52
2019-02-16T19:12:08.482Z,4.25
2019-02-16T19:14:38.536Z,4.30
2019-02-16T19:17:20.368Z,4.64
2019-02-16T19:19:56.296Z,4.49
2019-02-16T19:22:26.294Z,4.70
2019-02-16T19:24:56.291Z,4.81
2019-02-16T19:27:42.645Z,4.90
2019-02-16T19:30:12.815Z,4.50
2019-02-16T19:32:55.001Z,4.36
2019-02-16T19:35:25.354Z,4.33
2019-02-16T19:38:11.603Z,4.29
2019-02-16T19:40:47.656Z,4.10
2019-02-16T19:43:23.800Z,4.44
2019-02-16T19:45:53.817Z,4.53
2019-02-16T19:48:23.814Z,4.48
2019-02-16T19:50:53.845Z,4.49
2019-02-16T19:53:43.372Z,4.59
2019-02-16T19:56:28.115Z,4.69
2019-02-16T19:59:14.579Z,4.55
2019-02-16T20:01:44.830Z,4.46
2019-02-16T20:04:17.350Z,4.34
2019-02-16T20:06:53.171Z,4.26
2019-02-16T20:09:26.081Z,4.43
2019-02-16T20:11:56.184Z,4.43
2019-02-16T20:14:26.173Z,4.53
2019-02-16T20:17:05.540Z,4.50
2019-02-16T20:19:53.643Z,4.43
2019-02-16T20:22:35.700Z,4.25
2019-02-16T20:25:17.677Z,4.20
2019-02-16T20:27:59.702Z,4.15
2019-02-16T20:30:46.131Z,4.05
2019-02-16T20:33:31.203Z,4.07
2019-02-16T20:36:01.777Z,3.95
2019-02-16T20:38:31.801Z,3.23
2019-02-16T20:41:16.770Z,2.86
2019-02-16T20:44:04.666Z,3.31
2019-02-16T20:46:37.302Z,3.53
2019-02-16T20:49:23.256Z,3.61
2019-02-16T20:51:53.248Z,3.77
2019-02-16T20:54:23.284Z,3.70
2019-02-16T20:56:53.271Z,3.50
2019-02-16T20:59:26.511Z,3.40
2019-02-16T21:02:02.937Z,3.39
2019-02-16T21:04:34.783Z,3.13
2019-02-16T21:07:11.394Z,3.06
2019-02-16T21:09:47.541Z,3.09
2019-02-16T21:12:17.536Z,2.68
2019-02-16T21:14:56.585Z,2.63
2019-02-16T21:17:26.938Z,2.64
2019-02-16T21:20:13.775Z,2.67
2019-02-16T21:23:01.053Z,2.49
2019-02-16T21:25:32.459Z,2.36
2019-02-16T21:28:12.156Z,2.49
2019-02-16T21:30:51.298Z,2.48
2019-02-16T21:33:21.568Z,1.90
2019-02-16T21:35:57.304Z,1.82
2019-02-16T21:38:43.774Z,2.25
2019-02-16T21:41:16.530Z,2.53
2019-02-16T21:43:50.028Z,2.73
2019-02-16T21:46:25.919Z,2.75
2019-02-16T21:48:56.177Z,2.72
2019-02-16T21:51:38.844Z,2.47
2019-02-16T21:54:28.264Z,2.55
2019-02-16T21:57:04.922Z,2.56
2019-02-16T21:59:43.707Z,2.26
2019-02-16T22:02:14.699Z,2.50
2019-02-16T22:04:57.283Z,2.73
2019-02-16T22:07:29.772Z,2.56
2019-02-16T22:10:03.107Z,2.55
2019-02-16T22:12:48.370Z,2.46
2019-02-16T22:15:16.873Z,1.98
2019-02-16T22:17:45.547Z,2.08
2019-02-16T22:20:14.010Z,2.24
2019-02-16T22:22:43.147Z,2.37
2019-02-16T22:25:13.654Z,2.30
2019-02-16T22:27:42.420Z,2.31
2019-02-16T22:30:11.744Z,2.26
2019-02-16T22:32:40.400Z,2.21
2019-02-16T22:35:08.855Z,2.01
2019-02-16T22:37:37.281Z,1.82
2019-02-16T22:40:07.308Z,1.92
2019-02-16T22:42:36.101Z,2.05
2019-02-16T22:45:07.524Z,2.07
2019-02-16T22:47:36.006Z,1.93
2019-02-16T22:50:08.037Z,1.97
2019-02-16T22:52:36.804Z,1.85
2019-02-16T22:55:07.636Z,1.38
2019-02-16T22:57:36.448Z,1.04
2019-02-16T23:00:08.146Z,0.97
2019-02-16T23:02:36.934Z,0.92
2019-02-16T23:05:06.434Z,0.92
2019-02-16T23:07:35.128Z,1.12
2019-02-16T23:10:05.291Z,1.36
2019-02-16T23:12:33.910Z,1.09
2019-02-16T23:15:02.399Z,0.90
2019-02-16T23:17:31.065Z,0.97
2019-02-16T23:19:59.508Z,0.96
2019-02-16T23:22:27.958Z,0.63
2019-02-16T23:24:56.384Z,0.18
2019-02-16T23:27:24.869Z,0.19
2019-02-16T23:29:53.289Z,0.16
2019-02-16T23:32:21.676Z,0.40
2019-02-16T23:34:50.031Z,0.31
2019-02-16T23:37:18.480Z,0.44
2019-02-16T23:39:46.837Z,0.38
2019-02-16T23:42:15.220Z,0.44
2019-02-16T23:44:43.579Z,0.58
2019-02-16T23:47:11.961Z,0.42
2019-02-16T23:49:40.314Z,0.53
2019-02-16T23:52:08.700Z,0.50
2019-02-16T23:54:37.056Z,0.44
2019-02-16T23:57:05.511Z,0.50
2019-02-16T23:59:33.865Z,0.72
